sensor_id;sensor_type;location;lat;lon;timestamp;temperature;humidity
17944;DHT22;9097;47.028;15.444;2022-12-01T00:02:55;5.30;99.90
17944;DHT22;9097;47.028;15.444;2022-12-01T00:05:58;5.30;99.90
17944;DHT22;9097;47.028;15.444;2022-12-01T00:09:00;5.30;99.90
17944;DHT22;9097;47.028;15.444;2022-12-01T00:12:20;5.30;99.90
17944;DHT22;9097;47.028;15.444;2022-12-01T00:15:25;5.30;99.90
17944;DHT22;9097;47.028;15.444;2022-12-01T00:18:28;5.40;99.90
17944;DHT22;9097;47.028;15.444;2022-12-01T00:21:30;5.40;99.90
17944;DHT22;9097;47.028;15.444;2022-12-01T00:24:32;5.40;99.90
17944;DHT22;9097;47.028;15.444;2022-12-01T00:27:35;5.40;99.90
17944;DHT22;9097;47.028;15.444;2022-12-01T00:30:39;5.40;99.90
17944;DHT22;9097;47.028;15.444;2022-12-01T00:33:41;5.40;99.90
17944;DHT22;9097;47.028;15.444;2022-12-01T00:36:43;5.30;99.90
17944;DHT22;9097;47.028;15.444;2022-12-01T00:39:47;5.30;99.90
17944;DHT22;9097;47.028;15.444;2022-12-01T00:42:49;5.30;99.90
17944;DHT22;9097;47.028;15.444;2022-12-01T00:45:53;5.40;99.90
17944;DHT22;9097;47.028;15.444;2022-12-01T00:48:56;5.40;99.90
17944;DHT22;9097;47.028;15.444;2022-12-01T00:52:00;5.30;99.90
17944;DHT22;9097;47.028;15.444;2022-12-01T00:55:03;5.30;99.90
17944;DHT22;9097;47.028;15.444;2022-12-01T00:58:05;5.30;99.90
17944;DHT22;9097;47.028;15.444;2022-12-01T01:01:09;5.30;99.90
17944;DHT22;9097;47.028;15.444;2022-12-01T01:04:11;5.30;99.90
17944;DHT22;9097;47.028;15.444;2022-12-01T01:07:14;5.20;99.90
17944;DHT22;9097;47.028;15.444;2022-12-01T01:10:16;5.30;99.90
17944;DHT22;9097;47.028;15.444;2022-12-01T01:13:19;5.40;99.90
17944;DHT22;9097;47.028;15.444;2022-12-01T01:16:22;5.40;99.90
17944;DHT22;9097;47.028;15.444;2022-12-01T01:19:25;5.30;99.90
17944;DHT22;9097;47.028;15.444;2022-12-01T01:22:27;5.20;99.90
17944;DHT22;9097;47.028;15.444;2022-12-01T01:25:31;5.20;99.90
17944;DHT22;9097;47.028;15.444;2022-12-01T01:28:34;5.30;99.90
17944;DHT22;9097;47.028;15.444;2022-12-01T01:31:39;5.30;99.90
17944;DHT22;9097;47.028;15.444;2022-12-01T01:34:41;5.30;99.90
17944;DHT22;9097;47.028;15.444;2022-12-01T01:37:43;5.30;99.90
17944;DHT22;9097;47.028;15.444;2022-12-01T01:40:46;5.30;99.90
17944;DHT22;9097;47.028;15.444;2022-12-01T01:43:51;5.30;99.90
17944;DHT22;9097;47.028;15.444;2022-12-01T01:46:55;5.30;99.90
17944;DHT22;9097;47.028;15.444;2022-12-01T01:49:59;5.30;99.90
17944;DHT22;9097;47.028;15.444;2022-12-01T01:53:08;5.30;99.90
17944;DHT22;9097;47.028;15.444;2022-12-01T01:56:11;5.30;99.90
17944;DHT22;9097;47.028;15.444;2022-12-01T01:59:18;5.30;99.90
17944;DHT22;9097;47.028;15.444;2022-12-01T02:02:22;5.30;99.90
17944;DHT22;9097;47.028;15.444;2022-12-01T02:05:29;5.40;99.90
17944;DHT22;9097;47.028;15.444;2022-12-01T02:08:34;5.50;99.90
17944;DHT22;9097;47.028;15.444;2022-12-01T02:11:58;5.50;99.90
17944;DHT22;9097;47.028;15.444;2022-12-01T02:15:11;5.40;99.90
17944;DHT22;9097;47.028;15.444;2022-12-01T02:18:23;5.30;99.90
17944;DHT22;9097;47.028;15.444;2022-12-01T02:21:43;5.40;99.90
17944;DHT22;9097;47.028;15.444;2022-12-01T02:28:39;5.40;99.90
17944;DHT22;9097;47.028;15.444;2022-12-01T02:31:53;5.40;99.90
17944;DHT22;9097;47.028;15.444;2022-12-01T02:35:02;5.50;99.90
17944;DHT22;9097;47.028;15.444;2022-12-01T02:38:13;5.50;99.90
17944;DHT22;9097;47.028;15.444;2022-12-01T02:41:23;5.50;99.90
17944;DHT22;9097;47.028;15.444;2022-12-01T02:44:29;5.60;99.90
17944;DHT22;9097;47.028;15.444;2022-12-01T02:47:36;5.60;99.90
17944;DHT22;9097;47.028;15.444;2022-12-01T02:50:39;5.60;99.90
17944;DHT22;9097;47.028;15.444;2022-12-01T02:53:43;5.60;99.90
17944;DHT22;9097;47.028;15.444;2022-12-01T02:56:47;5.60;99.90
17944;DHT22;9097;47.028;15.444;2022-12-01T02:59:54;5.60;99.90
17944;DHT22;9097;47.028;15.444;2022-12-01T03:03:12;5.60;99.90
17944;DHT22;9097;47.028;15.444;2022-12-01T03:06:28;5.70;99.90
17944;DHT22;9097;47.028;15.444;2022-12-01T03:09:40;5.70;99.90
17944;DHT22;9097;47.028;15.444;2022-12-01T03:12:54;5.70;99.90
17944;DHT22;9097;47.028;15.444;2022-12-01T03:16:04;5.60;99.90
17944;DHT22;9097;47.028;15.444;2022-12-01T03:19:13;5.60;99.90
17944;DHT22;9097;47.028;15.444;2022-12-01T03:22:20;5.50;99.90
17944;DHT22;9097;47.028;15.444;2022-12-01T03:25:27;5.60;99.90
17944;DHT22;9097;47.028;15.444;2022-12-01T03:28:35;5.50;99.90
17944;DHT22;9097;47.028;15.444;2022-12-01T03:31:43;5.50;99.90
17944;DHT22;9097;47.028;15.444;2022-12-01T03:34:49;5.50;99.90
17944;DHT22;9097;47.028;15.444;2022-12-01T03:37:58;5.50;99.90
17944;DHT22;9097;47.028;15.444;2022-12-01T03:41:06;5.50;99.90
17944;DHT22;9097;47.028;15.444;2022-12-01T03:44:14;5.50;99.90
17944;DHT22;9097;47.028;15.444;2022-12-01T03:47:20;5.50;99.90
17944;DHT22;9097;47.028;15.444;2022-12-01T03:50:30;5.50;99.90
17944;DHT22;9097;47.028;15.444;2022-12-01T03:53:41;5.50;99.90
17944;DHT22;9097;47.028;15.444;2022-12-01T03:56:52;5.40;99.90
17944;DHT22;9097;47.028;15.444;2022-12-01T03:59:55;5.30;99.90
17944;DHT22;9097;47.028;15.444;2022-12-01T04:02:59;5.40;99.90
17944;DHT22;9097;47.028;15.444;2022-12-01T04:06:05;5.30;99.90
17944;DHT22;9097;47.028;15.444;2022-12-01T04:09:07;5.30;99.90
17944;DHT22;9097;47.028;15.444;2022-12-01T04:12:12;5.40;99.90
17944;DHT22;9097;47.028;15.444;2022-12-01T04:15:33;5.30;99.90
17944;DHT22;9097;47.028;15.444;2022-12-01T04:18:36;5.20;99.90
17944;DHT22;9097;47.028;15.444;2022-12-01T04:21:40;5.20;99.90
17944;DHT22;9097;47.028;15.444;2022-12-01T04:24:43;5.20;99.90
17944;DHT22;9097;47.028;15.444;2022-12-01T04:27:45;5.30;99.90
17944;DHT22;9097;47.028;15.444;2022-12-01T04:30:50;5.30;99.90
17944;DHT22;9097;47.028;15.444;2022-12-01T04:33:53;5.30;99.90
17944;DHT22;9097;47.028;15.444;2022-12-01T04:36:57;5.40;99.90
17944;DHT22;9097;47.028;15.444;2022-12-01T04:39:59;5.30;99.90
17944;DHT22;9097;47.028;15.444;2022-12-01T04:43:02;5.30;99.90
17944;DHT22;9097;47.028;15.444;2022-12-01T04:46:05;5.40;99.90
17944;DHT22;9097;47.028;15.444;2022-12-01T04:49:08;5.40;99.90
17944;DHT22;9097;47.028;15.444;2022-12-01T04:52:12;5.40;99.90
17944;DHT22;9097;47.028;15.444;2022-12-01T04:55:15;5.40;99.90
17944;DHT22;9097;47.028;15.444;2022-12-01T04:58:19;5.40;99.90
17944;DHT22;9097;47.028;15.444;2022-12-01T05:01:21;5.30;99.90
17944;DHT22;9097;47.028;15.444;2022-12-01T05:04:23;5.20;99.90
17944;DHT22;9097;47.028;15.444;2022-12-01T05:07:27;5.20;99.90
17944;DHT22;9097;47.028;15.444;2022-12-01T05:10:29;5.20;99.90
17944;DHT22;9097;47.028;15.444;2022-12-01T05:13:32;5.20;99.90
17944;DHT22;9097;47.028;15.444;2022-12-01T05:16:34;5.20;99.90
17944;DHT22;9097;47.028;15.444;2022-12-01T05:19:37;5.20;99.90
17944;DHT22;9097;47.028;15.444;2022-12-01T05:22:58;5.20;99.90
17944;DHT22;9097;47.028;15.444;2022-12-01T05:26:01;5.20;99.90
17944;DHT22;9097;47.028;15.444;2022-12-01T05:29:04;5.20;99.90
17944;DHT22;9097;47.028;15.444;2022-12-01T05:32:07;5.20;99.90
17944;DHT22;9097;47.028;15.444;2022-12-01T05:35:10;5.20;99.90
17944;DHT22;9097;47.028;15.444;2022-12-01T05:38:14;5.20;99.90
17944;DHT22;9097;47.028;15.444;2022-12-01T05:41:16;5.20;99.90
17944;DHT22;9097;47.028;15.444;2022-12-01T05:44:19;5.30;99.90
17944;DHT22;9097;47.028;15.444;2022-12-01T05:47:21;5.40;99.90
17944;DHT22;9097;47.028;15.444;2022-12-01T05:50:24;5.40;99.90
17944;DHT22;9097;47.028;15.444;2022-12-01T05:53:28;5.40;99.90
17944;DHT22;9097;47.028;15.444;2022-12-01T05:56:30;5.40;99.90
17944;DHT22;9097;47.028;15.444;2022-12-01T05:59:34;5.40;99.90
17944;DHT22;9097;47.028;15.444;2022-12-01T06:02:40;5.40;99.90
17944;DHT22;9097;47.028;15.444;2022-12-01T06:05:43;5.50;99.90
17944;DHT22;9097;47.028;15.444;2022-12-01T06:08:46;5.40;99.90
17944;DHT22;9097;47.028;15.444;2022-12-01T06:11:49;5.40;99.90
17944;DHT22;9097;47.028;15.444;2022-12-01T06:14:51;5.20;99.90
17944;DHT22;9097;47.028;15.444;2022-12-01T06:17:53;5.10;99.90
17944;DHT22;9097;47.028;15.444;2022-12-01T06:20:56;5.10;99.90
17944;DHT22;9097;47.028;15.444;2022-12-01T06:24:00;5.20;99.90
17944;DHT22;9097;47.028;15.444;2022-12-01T06:27:02;5.20;99.90
17944;DHT22;9097;47.028;15.444;2022-12-01T06:30:05;5.10;99.90
17944;DHT22;9097;47.028;15.444;2022-12-01T06:33:08;5.10;99.90
17944;DHT22;9097;47.028;15.444;2022-12-01T06:36:10;5.00;99.90
17944;DHT22;9097;47.028;15.444;2022-12-01T06:39:15;5.00;99.90
17944;DHT22;9097;47.028;15.444;2022-12-01T06:42:17;5.00;99.90
17944;DHT22;9097;47.028;15.444;2022-12-01T06:45:20;5.00;99.90
17944;DHT22;9097;47.028;15.444;2022-12-01T06:48:22;5.10;99.90
17944;DHT22;9097;47.028;15.444;2022-12-01T06:51:24;5.10;99.90
17944;DHT22;9097;47.028;15.444;2022-12-01T06:54:28;5.10;99.90
17944;DHT22;9097;47.028;15.444;2022-12-01T06:57:32;5.10;99.90
17944;DHT22;9097;47.028;15.444;2022-12-01T07:00:34;5.10;99.90
17944;DHT22;9097;47.028;15.444;2022-12-01T07:03:36;5.10;99.90
17944;DHT22;9097;47.028;15.444;2022-12-01T07:06:39;5.00;99.90
17944;DHT22;9097;47.028;15.444;2022-12-01T07:09:42;5.00;99.90
17944;DHT22;9097;47.028;15.444;2022-12-01T07:12:45;5.00;99.90
17944;DHT22;9097;47.028;15.444;2022-12-01T07:15:47;5.00;99.90
17944;DHT22;9097;47.028;15.444;2022-12-01T07:18:50;5.00;99.90
17944;DHT22;9097;47.028;15.444;2022-12-01T07:21:53;5.10;99.90
17944;DHT22;9097;47.028;15.444;2022-12-01T07:24:57;5.10;99.90
17944;DHT22;9097;47.028;15.444;2022-12-01T07:27:59;5.10;99.90
17944;DHT22;9097;47.028;15.444;2022-12-01T07:31:03;5.10;99.90
17944;DHT22;9097;47.028;15.444;2022-12-01T07:34:06;5.00;99.90
17944;DHT22;9097;47.028;15.444;2022-12-01T07:37:08;5.10;99.90
17944;DHT22;9097;47.028;15.444;2022-12-01T07:40:12;5.00;99.90
17944;DHT22;9097;47.028;15.444;2022-12-01T07:43:16;5.00;99.90
17944;DHT22;9097;47.028;15.444;2022-12-01T07:46:19;5.00;99.90
17944;DHT22;9097;47.028;15.444;2022-12-01T07:49:22;5.00;99.90
17944;DHT22;9097;47.028;15.444;2022-12-01T07:52:25;5.00;99.90
17944;DHT22;9097;47.028;15.444;2022-12-01T07:55:29;5.00;99.90
17944;DHT22;9097;47.028;15.444;2022-12-01T07:58:32;5.00;99.90
17944;DHT22;9097;47.028;15.444;2022-12-01T08:01:34;4.90;99.90
17944;DHT22;9097;47.028;15.444;2022-12-01T08:04:37;5.00;99.90
17944;DHT22;9097;47.028;15.444;2022-12-01T08:07:39;5.00;99.90
17944;DHT22;9097;47.028;15.444;2022-12-01T08:10:43;5.00;99.90
17944;DHT22;9097;47.028;15.444;2022-12-01T08:13:46;5.00;99.90
17944;DHT22;9097;47.028;15.444;2022-12-01T08:16:48;4.90;99.90
17944;DHT22;9097;47.028;15.444;2022-12-01T08:19:51;5.00;99.90
17944;DHT22;9097;47.028;15.444;2022-12-01T08:22:54;5.20;99.90
17944;DHT22;9097;47.028;15.444;2022-12-01T08:26:00;5.20;99.90
17944;DHT22;9097;47.028;15.444;2022-12-01T08:29:03;5.20;99.90
17944;DHT22;9097;47.028;15.444;2022-12-01T08:32:07;5.10;99.90
17944;DHT22;9097;47.028;15.444;2022-12-01T08:35:09;5.30;99.90
17944;DHT22;9097;47.028;15.444;2022-12-01T08:38:12;5.30;99.90
17944;DHT22;9097;47.028;15.444;2022-12-01T08:41:17;5.30;99.90
17944;DHT22;9097;47.028;15.444;2022-12-01T08:44:19;5.30;99.90
17944;DHT22;9097;47.028;15.444;2022-12-01T08:47:22;5.30;99.90
17944;DHT22;9097;47.028;15.444;2022-12-01T08:50:25;5.40;99.90
17944;DHT22;9097;47.028;15.444;2022-12-01T08:53:27;5.40;99.90
17944;DHT22;9097;47.028;15.444;2022-12-01T08:56:34;5.40;99.90
17944;DHT22;9097;47.028;15.444;2022-12-01T08:59:36;5.30;99.90
17944;DHT22;9097;47.028;15.444;2022-12-01T09:02:39;5.40;99.90
17944;DHT22;9097;47.028;15.444;2022-12-01T09:05:41;5.40;99.90
17944;DHT22;9097;47.028;15.444;2022-12-01T09:08:43;5.40;99.90
17944;DHT22;9097;47.028;15.444;2022-12-01T09:11:47;5.30;99.90
17944;DHT22;9097;47.028;15.444;2022-12-01T09:14:51;5.40;99.90
17944;DHT22;9097;47.028;15.444;2022-12-01T09:17:54;5.50;99.90
17944;DHT22;9097;47.028;15.444;2022-12-01T09:20:57;5.60;99.90
17944;DHT22;9097;47.028;15.444;2022-12-01T09:24:00;5.60;99.90
17944;DHT22;9097;47.028;15.444;2022-12-01T09:27:04;5.60;99.90
17944;DHT22;9097;47.028;15.444;2022-12-01T09:30:07;5.60;99.90
17944;DHT22;9097;47.028;15.444;2022-12-01T09:33:10;5.60;99.90
17944;DHT22;9097;47.028;15.444;2022-12-01T09:36:12;5.70;99.90
17944;DHT22;9097;47.028;15.444;2022-12-01T09:39:16;5.60;99.90
17944;DHT22;9097;47.028;15.444;2022-12-01T09:42:21;5.60;99.90
17944;DHT22;9097;47.028;15.444;2022-12-01T09:45:29;5.60;99.90
17944;DHT22;9097;47.028;15.444;2022-12-01T09:48:35;5.50;99.90
17944;DHT22;9097;47.028;15.444;2022-12-01T09:51:42;5.40;99.90
17944;DHT22;9097;47.028;15.444;2022-12-01T09:54:44;5.30;99.90
17944;DHT22;9097;47.028;15.444;2022-12-01T09:57:51;5.20;99.90
17944;DHT22;9097;47.028;15.444;2022-12-01T10:00:54;5.30;99.90
17944;DHT22;9097;47.028;15.444;2022-12-01T10:03:59;5.30;99.90
17944;DHT22;9097;47.028;15.444;2022-12-01T10:07:05;5.30;99.90
17944;DHT22;9097;47.028;15.444;2022-12-01T10:10:13;5.30;99.90
17944;DHT22;9097;47.028;15.444;2022-12-01T10:13:20;5.30;99.90
17944;DHT22;9097;47.028;15.444;2022-12-01T10:16:25;5.30;99.90
17944;DHT22;9097;47.028;15.444;2022-12-01T10:19:35;5.20;99.90
17944;DHT22;9097;47.028;15.444;2022-12-01T10:23:03;5.20;99.90
17944;DHT22;9097;47.028;15.444;2022-12-01T10:26:11;5.20;99.90
17944;DHT22;9097;47.028;15.444;2022-12-01T10:29:26;5.20;99.90
17944;DHT22;9097;47.028;15.444;2022-12-01T10:32:43;5.30;99.90
17944;DHT22;9097;47.028;15.444;2022-12-01T10:35:47;5.20;99.90
17944;DHT22;9097;47.028;15.444;2022-12-01T10:38:49;5.20;99.90
17944;DHT22;9097;47.028;15.444;2022-12-01T10:41:51;5.10;99.90
17944;DHT22;9097;47.028;15.444;2022-12-01T10:45:00;5.10;99.90
17944;DHT22;9097;47.028;15.444;2022-12-01T10:48:08;5.20;99.90
17944;DHT22;9097;47.028;15.444;2022-12-01T10:51:15;5.20;99.90
17944;DHT22;9097;47.028;15.444;2022-12-01T10:54:20;5.20;99.90
17944;DHT22;9097;47.028;15.444;2022-12-01T10:57:23;5.30;99.90
17944;DHT22;9097;47.028;15.444;2022-12-01T11:00:33;5.40;99.90
17944;DHT22;9097;47.028;15.444;2022-12-01T11:03:39;5.30;99.90
17944;DHT22;9097;47.028;15.444;2022-12-01T11:06:47;5.30;99.90
17944;DHT22;9097;47.028;15.444;2022-12-01T11:10:12;5.30;99.90
17944;DHT22;9097;47.028;15.444;2022-12-01T11:13:20;5.40;99.90
17944;DHT22;9097;47.028;15.444;2022-12-01T11:16:37;5.30;99.90
17944;DHT22;9097;47.028;15.444;2022-12-01T11:19:40;5.30;99.90
17944;DHT22;9097;47.028;15.444;2022-12-01T11:22:42;5.30;99.90
17944;DHT22;9097;47.028;15.444;2022-12-01T11:25:56;5.20;99.90
17944;DHT22;9097;47.028;15.444;2022-12-01T11:29:02;5.20;99.90
17944;DHT22;9097;47.028;15.444;2022-12-01T11:32:15;5.00;99.90
17944;DHT22;9097;47.028;15.444;2022-12-01T11:35:21;5.10;99.90
17944;DHT22;9097;47.028;15.444;2022-12-01T11:38:30;5.10;99.90
17944;DHT22;9097;47.028;15.444;2022-12-01T11:41:36;5.20;99.90
17944;DHT22;9097;47.028;15.444;2022-12-01T11:44:47;5.20;99.90
17944;DHT22;9097;47.028;15.444;2022-12-01T11:48:06;5.10;99.90
17944;DHT22;9097;47.028;15.444;2022-12-01T11:51:28;5.10;99.90
17944;DHT22;9097;47.028;15.444;2022-12-01T11:54:31;5.00;99.90
17944;DHT22;9097;47.028;15.444;2022-12-01T11:57:33;4.90;99.90
17944;DHT22;9097;47.028;15.444;2022-12-01T12:00:44;4.90;99.90
17944;DHT22;9097;47.028;15.444;2022-12-01T12:03:54;4.90;99.90
17944;DHT22;9097;47.028;15.444;2022-12-01T12:07:08;5.00;99.90
17944;DHT22;9097;47.028;15.444;2022-12-01T12:10:28;5.00;99.90
17944;DHT22;9097;47.028;15.444;2022-12-01T12:13:52;5.00;99.90
17944;DHT22;9097;47.028;15.444;2022-12-01T12:17:11;4.90;99.90
17944;DHT22;9097;47.028;15.444;2022-12-01T12:20:44;4.90;99.90
17944;DHT22;9097;47.028;15.444;2022-12-01T12:24:15;4.90;99.90
17944;DHT22;9097;47.028;15.444;2022-12-01T12:27:26;5.00;99.90
17944;DHT22;9097;47.028;15.444;2022-12-01T12:30:34;5.10;99.90
17944;DHT22;9097;47.028;15.444;2022-12-01T12:34:01;5.10;99.90
17944;DHT22;9097;47.028;15.444;2022-12-01T12:37:18;5.20;99.90
17944;DHT22;9097;47.028;15.444;2022-12-01T12:40:30;5.20;99.90
17944;DHT22;9097;47.028;15.444;2022-12-01T12:43:40;5.10;99.90
17944;DHT22;9097;47.028;15.444;2022-12-01T12:46:49;5.00;99.90
17944;DHT22;9097;47.028;15.444;2022-12-01T12:50:09;4.90;99.90
17944;DHT22;9097;47.028;15.444;2022-12-01T12:53:18;4.90;99.90
17944;DHT22;9097;47.028;15.444;2022-12-01T12:56:23;4.90;99.90
17944;DHT22;9097;47.028;15.444;2022-12-01T12:59:30;4.90;99.90
17944;DHT22;9097;47.028;15.444;2022-12-01T13:02:38;5.00;99.90
17944;DHT22;9097;47.028;15.444;2022-12-01T13:05:47;5.00;99.90
17944;DHT22;9097;47.028;15.444;2022-12-01T13:08:56;5.00;99.90
17944;DHT22;9097;47.028;15.444;2022-12-01T13:12:03;5.10;99.90
17944;DHT22;9097;47.028;15.444;2022-12-01T13:15:14;5.10;99.90
17944;DHT22;9097;47.028;15.444;2022-12-01T13:18:35;5.20;99.90
17944;DHT22;9097;47.028;15.444;2022-12-01T13:21:41;5.30;99.90
17944;DHT22;9097;47.028;15.444;2022-12-01T13:24:46;5.20;99.90
17944;DHT22;9097;47.028;15.444;2022-12-01T13:27:49;5.10;99.90
17944;DHT22;9097;47.028;15.444;2022-12-01T13:31:01;5.00;99.90
17944;DHT22;9097;47.028;15.444;2022-12-01T13:34:05;5.10;99.90
17944;DHT22;9097;47.028;15.444;2022-12-01T13:37:09;5.10;99.90
17944;DHT22;9097;47.028;15.444;2022-12-01T13:40:19;5.10;99.90
17944;DHT22;9097;47.028;15.444;2022-12-01T13:43:22;5.20;99.90
17944;DHT22;9097;47.028;15.444;2022-12-01T13:46:27;5.20;99.90
17944;DHT22;9097;47.028;15.444;2022-12-01T13:49:41;5.20;99.90
17944;DHT22;9097;47.028;15.444;2022-12-01T13:52:49;5.20;99.90
17944;DHT22;9097;47.028;15.444;2022-12-01T13:59:40;5.30;99.90
17944;DHT22;9097;47.028;15.444;2022-12-01T14:02:43;5.20;99.90
17944;DHT22;9097;47.028;15.444;2022-12-01T14:05:54;5.20;99.90
17944;DHT22;9097;47.028;15.444;2022-12-01T14:08:58;5.10;99.90
17944;DHT22;9097;47.028;15.444;2022-12-01T14:12:12;5.10;99.90
17944;DHT22;9097;47.028;15.444;2022-12-01T14:15:34;5.00;99.90
17944;DHT22;9097;47.028;15.444;2022-12-01T14:18:42;5.00;99.90
17944;DHT22;9097;47.028;15.444;2022-12-01T14:21:50;5.00;99.90
17944;DHT22;9097;47.028;15.444;2022-12-01T14:24:53;5.00;99.90
17944;DHT22;9097;47.028;15.444;2022-12-01T14:27:59;5.10;99.90
17944;DHT22;9097;47.028;15.444;2022-12-01T14:31:03;5.10;99.90
17944;DHT22;9097;47.028;15.444;2022-12-01T14:34:07;5.10;99.90
17944;DHT22;9097;47.028;15.444;2022-12-01T14:37:12;5.10;99.90
17944;DHT22;9097;47.028;15.444;2022-12-01T14:40:28;5.20;99.90
17944;DHT22;9097;47.028;15.444;2022-12-01T14:43:33;5.20;99.90
17944;DHT22;9097;47.028;15.444;2022-12-01T14:46:58;5.20;99.90
17944;DHT22;9097;47.028;15.444;2022-12-01T14:50:06;5.30;99.90
17944;DHT22;9097;47.028;15.444;2022-12-01T14:53:22;5.30;99.90
17944;DHT22;9097;47.028;15.444;2022-12-01T14:56:26;5.30;99.90
17944;DHT22;9097;47.028;15.444;2022-12-01T14:59:30;5.30;99.90
17944;DHT22;9097;47.028;15.444;2022-12-01T15:02:34;5.10;99.90
17944;DHT22;9097;47.028;15.444;2022-12-01T15:05:42;5.00;99.90
17944;DHT22;9097;47.028;15.444;2022-12-01T15:08:45;5.10;99.90
17944;DHT22;9097;47.028;15.444;2022-12-01T15:11:55;5.20;99.90
17944;DHT22;9097;47.028;15.444;2022-12-01T15:14:59;5.20;99.90
17944;DHT22;9097;47.028;15.444;2022-12-01T15:18:20;5.20;99.90
17944;DHT22;9097;47.028;15.444;2022-12-01T15:21:24;5.30;99.90
17944;DHT22;9097;47.028;15.444;2022-12-01T15:24:27;5.40;99.90
17944;DHT22;9097;47.028;15.444;2022-12-01T15:27:32;5.40;99.90
17944;DHT22;9097;47.028;15.444;2022-12-01T15:30:36;5.40;99.90
17944;DHT22;9097;47.028;15.444;2022-12-01T15:33:45;5.40;99.90
17944;DHT22;9097;47.028;15.444;2022-12-01T15:36:48;5.50;99.90
17944;DHT22;9097;47.028;15.444;2022-12-01T15:39:54;5.40;99.90
17944;DHT22;9097;47.028;15.444;2022-12-01T15:43:04;5.40;99.90
17944;DHT22;9097;47.028;15.444;2022-12-01T15:46:15;5.30;99.90
17944;DHT22;9097;47.028;15.444;2022-12-01T15:49:19;5.30;99.90
17944;DHT22;9097;47.028;15.444;2022-12-01T15:52:22;5.40;99.90
17944;DHT22;9097;47.028;15.444;2022-12-01T15:55:30;5.40;99.90
17944;DHT22;9097;47.028;15.444;2022-12-01T15:58:43;5.50;99.90
17944;DHT22;9097;47.028;15.444;2022-12-01T16:01:47;5.40;99.90
17944;DHT22;9097;47.028;15.444;2022-12-01T16:04:59;5.30;99.90
17944;DHT22;9097;47.028;15.444;2022-12-01T16:08:13;5.30;99.90
17944;DHT22;9097;47.028;15.444;2022-12-01T16:11:17;5.30;99.90
17944;DHT22;9097;47.028;15.444;2022-12-01T16:14:22;5.30;99.90
17944;DHT22;9097;47.028;15.444;2022-12-01T16:17:38;5.30;99.90
17944;DHT22;9097;47.028;15.444;2022-12-01T16:20:42;5.20;99.90
17944;DHT22;9097;47.028;15.444;2022-12-01T16:23:46;5.20;99.90
17944;DHT22;9097;47.028;15.444;2022-12-01T16:26:51;5.10;99.90
17944;DHT22;9097;47.028;15.444;2022-12-01T16:29:56;5.20;99.90
17944;DHT22;9097;47.028;15.444;2022-12-01T16:33:05;5.20;99.90
17944;DHT22;9097;47.028;15.444;2022-12-01T16:36:08;5.20;99.90
17944;DHT22;9097;47.028;15.444;2022-12-01T16:39:11;5.30;99.90
17944;DHT22;9097;47.028;15.444;2022-12-01T16:42:15;5.30;99.90
17944;DHT22;9097;47.028;15.444;2022-12-01T16:45:18;5.30;99.90
17944;DHT22;9097;47.028;15.444;2022-12-01T16:48:22;5.40;99.90
17944;DHT22;9097;47.028;15.444;2022-12-01T16:51:24;5.40;99.90
17944;DHT22;9097;47.028;15.444;2022-12-01T16:54:27;5.40;99.90
17944;DHT22;9097;47.028;15.444;2022-12-01T16:57:29;5.40;99.90
17944;DHT22;9097;47.028;15.444;2022-12-01T17:00:33;5.40;99.90
17944;DHT22;9097;47.028;15.444;2022-12-01T17:03:36;5.40;99.90
17944;DHT22;9097;47.028;15.444;2022-12-01T17:06:39;5.40;99.90
17944;DHT22;9097;47.028;15.444;2022-12-01T17:09:41;5.40;99.90
17944;DHT22;9097;47.028;15.444;2022-12-01T17:12:49;5.40;99.90
17944;DHT22;9097;47.028;15.444;2022-12-01T17:15:53;5.50;99.90
17944;DHT22;9097;47.028;15.444;2022-12-01T17:19:05;5.40;99.90
17944;DHT22;9097;47.028;15.444;2022-12-01T17:22:09;5.40;99.90
17944;DHT22;9097;47.028;15.444;2022-12-01T17:25:15;5.40;99.90
17944;DHT22;9097;47.028;15.444;2022-12-01T17:28:17;5.40;99.90
17944;DHT22;9097;47.028;15.444;2022-12-01T17:31:20;5.40;99.90
17944;DHT22;9097;47.028;15.444;2022-12-01T17:34:24;5.40;99.90
17944;DHT22;9097;47.028;15.444;2022-12-01T17:37:27;5.40;99.90
17944;DHT22;9097;47.028;15.444;2022-12-01T17:40:31;5.50;99.90
17944;DHT22;9097;47.028;15.444;2022-12-01T17:43:34;5.50;99.90
17944;DHT22;9097;47.028;15.444;2022-12-01T17:46:38;5.50;99.90
17944;DHT22;9097;47.028;15.444;2022-12-01T17:49:43;5.50;99.90
17944;DHT22;9097;47.028;15.444;2022-12-01T17:52:47;5.50;99.90
17944;DHT22;9097;47.028;15.444;2022-12-01T17:55:52;5.60;99.90
17944;DHT22;9097;47.028;15.444;2022-12-01T17:58:56;5.60;99.90
17944;DHT22;9097;47.028;15.444;2022-12-01T18:02:02;5.50;99.90
17944;DHT22;9097;47.028;15.444;2022-12-01T18:05:09;5.50;99.90
17944;DHT22;9097;47.028;15.444;2022-12-01T18:08:13;5.40;99.90
17944;DHT22;9097;47.028;15.444;2022-12-01T18:11:16;5.40;99.90
17944;DHT22;9097;47.028;15.444;2022-12-01T18:14:19;5.50;99.90
17944;DHT22;9097;47.028;15.444;2022-12-01T18:17:21;5.50;99.90
17944;DHT22;9097;47.028;15.444;2022-12-01T18:20:25;5.50;99.90
17944;DHT22;9097;47.028;15.444;2022-12-01T18:23:28;5.50;99.90
17944;DHT22;9097;47.028;15.444;2022-12-01T18:26:32;5.40;99.90
17944;DHT22;9097;47.028;15.444;2022-12-01T18:29:41;5.40;99.90
17944;DHT22;9097;47.028;15.444;2022-12-01T18:32:45;5.40;99.90
17944;DHT22;9097;47.028;15.444;2022-12-01T18:35:49;5.40;99.90
17944;DHT22;9097;47.028;15.444;2022-12-01T18:38:52;5.40;99.90
17944;DHT22;9097;47.028;15.444;2022-12-01T18:41:54;5.40;99.90
17944;DHT22;9097;47.028;15.444;2022-12-01T18:44:57;5.40;99.90
17944;DHT22;9097;47.028;15.444;2022-12-01T18:47:59;5.50;99.90
17944;DHT22;9097;47.028;15.444;2022-12-01T18:51:04;5.40;99.90
17944;DHT22;9097;47.028;15.444;2022-12-01T18:54:13;5.40;99.90
17944;DHT22;9097;47.028;15.444;2022-12-01T18:57:19;5.40;99.90
17944;DHT22;9097;47.028;15.444;2022-12-01T19:00:22;5.40;99.90
17944;DHT22;9097;47.028;15.444;2022-12-01T19:03:27;5.40;99.90
17944;DHT22;9097;47.028;15.444;2022-12-01T19:06:32;5.40;99.90
17944;DHT22;9097;47.028;15.444;2022-12-01T19:09:34;5.60;99.90
17944;DHT22;9097;47.028;15.444;2022-12-01T19:12:37;5.50;99.90
17944;DHT22;9097;47.028;15.444;2022-12-01T19:15:39;5.50;99.90
17944;DHT22;9097;47.028;15.444;2022-12-01T19:18:42;5.40;99.90
17944;DHT22;9097;47.028;15.444;2022-12-01T19:21:46;5.50;99.90
17944;DHT22;9097;47.028;15.444;2022-12-01T19:24:52;5.50;99.90
17944;DHT22;9097;47.028;15.444;2022-12-01T19:27:55;5.50;99.90
17944;DHT22;9097;47.028;15.444;2022-12-01T19:30:58;5.40;99.90
17944;DHT22;9097;47.028;15.444;2022-12-01T19:34:01;5.40;99.90
17944;DHT22;9097;47.028;15.444;2022-12-01T19:37:05;5.40;99.90
17944;DHT22;9097;47.028;15.444;2022-12-01T19:40:09;5.50;99.90
17944;DHT22;9097;47.028;15.444;2022-12-01T19:43:11;5.40;99.90
17944;DHT22;9097;47.028;15.444;2022-12-01T19:46:17;5.50;99.90
17944;DHT22;9097;47.028;15.444;2022-12-01T19:49:21;5.50;99.90
17944;DHT22;9097;47.028;15.444;2022-12-01T19:52:27;5.40;99.90
17944;DHT22;9097;47.028;15.444;2022-12-01T19:55:30;5.40;99.90
17944;DHT22;9097;47.028;15.444;2022-12-01T19:58:33;5.50;99.90
17944;DHT22;9097;47.028;15.444;2022-12-01T20:01:37;5.60;99.90